createdAt,value
2018-08-13T00:01:01.918Z,81.13
2018-08-13T00:04:06.290Z,81.38
2018-08-13T00:07:10.602Z,81.44
2018-08-13T00:10:14.962Z,82.01
2018-08-13T00:13:19.343Z,81.85
2018-08-13T00:16:23.678Z,81.81
2018-08-13T00:19:28.498Z,81.35
2018-08-13T00:22:32.929Z,81.54
2018-08-13T00:25:37.272Z,81.98
2018-08-13T00:28:41.808Z,81.66
2018-08-13T00:31:46.075Z,82.13
2018-08-13T00:34:50.392Z,82.90
2018-08-13T00:37:55.273Z,82.73
2018-08-13T00:40:59.816Z,82.78
2018-08-13T00:44:04.160Z,82.88
2018-08-13T00:47:08.672Z,83.17
2018-08-13T00:50:14.377Z,82.99
2018-08-13T00:53:18.729Z,84.58
2018-08-13T00:56:23.047Z,84.05
2018-08-13T00:59:27.980Z,84.31
2018-08-13T01:02:32.259Z,84.88
2018-08-13T01:05:36.564Z,84.17
2018-08-13T01:08:41.157Z,84.46
2018-08-13T01:11:45.701Z,84.17
2018-08-13T01:14:50.138Z,84.56
2018-08-13T01:17:54.669Z,84.96
2018-08-13T01:20:59.060Z,86.29
2018-08-13T01:24:03.378Z,85.68
2018-08-13T01:27:07.709Z,85.47
2018-08-13T01:30:14.009Z,85.76
2018-08-13T01:33:18.945Z,86.34
2018-08-13T01:36:23.255Z,86.18
2018-08-13T01:39:27.589Z,86.09
2018-08-13T01:42:31.976Z,86.63
2018-08-13T01:45:36.301Z,85.85
2018-08-13T01:48:40.622Z,86.65
2018-08-13T01:51:44.963Z,86.01
2018-08-13T01:54:49.425Z,86.66
2018-08-13T01:57:54.025Z,87.39
2018-08-13T02:01:43.975Z,87.26
2018-08-13T02:04:49.935Z,86.66
2018-08-13T02:07:54.305Z,86.90
2018-08-13T02:10:58.659Z,86.80
2018-08-13T02:14:02.961Z,87.51
2018-08-13T02:17:07.623Z,87.12
2018-08-13T02:20:11.951Z,87.17
2018-08-13T02:23:16.289Z,87.33
2018-08-13T02:26:20.571Z,88.37
2018-08-13T02:29:25.629Z,88.03
2018-08-13T02:32:29.960Z,87.55
2018-08-13T02:35:34.346Z,88.29
2018-08-13T02:38:38.624Z,88.35
2018-08-13T02:41:42.974Z,89.08
2018-08-13T02:44:47.262Z,88.84
2018-08-13T02:47:51.548Z,89.43
2018-08-13T02:50:55.826Z,89.01
2018-08-13T02:54:00.357Z,89.17
2018-08-13T02:57:04.720Z,88.63
2018-08-13T03:00:10.845Z,88.46
2018-08-13T03:03:15.198Z,89.46
2018-08-13T03:06:19.742Z,89.18
2018-08-13T03:09:24.036Z,89.31
2018-08-13T03:12:28.422Z,89.82
2018-08-13T03:15:33.389Z,89.39
2018-08-13T03:18:38.030Z,90.02
2018-08-13T03:21:42.424Z,89.92
2018-08-13T03:24:46.744Z,90.42
2018-08-13T03:27:51.126Z,90.90
2018-08-13T03:30:56.224Z,90.83
2018-08-13T03:34:00.521Z,90.44
2018-08-13T03:37:05.027Z,89.86
2018-08-13T03:40:12.601Z,89.97
2018-08-13T03:43:16.889Z,90.58
2018-08-13T03:46:21.433Z,90.01
2018-08-13T03:49:25.821Z,90.22
2018-08-13T03:52:30.099Z,90.51
2018-08-13T03:55:34.393Z,90.94
2018-08-13T03:58:38.697Z,90.48
2018-08-13T04:01:43.232Z,90.69
2018-08-13T04:04:47.764Z,90.96
2018-08-13T04:07:52.152Z,91.31
2018-08-13T04:10:56.677Z,90.44
2018-08-13T04:14:01.009Z,91.09
2018-08-13T04:17:05.445Z,91.54
2018-08-13T04:20:12.229Z,91.23
2018-08-13T04:23:16.544Z,91.29
2018-08-13T04:26:20.983Z,90.97
2018-08-13T04:29:25.571Z,90.60
2018-08-13T04:32:30.089Z,91.80
2018-08-13T04:35:34.516Z,91.22
2018-08-13T04:38:38.979Z,91.49
2018-08-13T04:41:44.252Z,90.54
2018-08-13T04:44:48.532Z,90.20
2018-08-13T04:47:54.609Z,90.74
2018-08-13T04:50:59.364Z,90.88
2018-08-13T04:54:03.979Z,90.37
2018-08-13T04:57:08.400Z,90.44
2018-08-13T05:00:12.837Z,90.36
2018-08-13T05:03:17.212Z,89.80
2018-08-13T05:06:21.532Z,89.90
2018-08-13T05:09:25.965Z,89.29
2018-08-13T05:12:30.417Z,89.12
2018-08-13T05:15:34.690Z,88.58
2018-08-13T05:18:39.250Z,88.53
2018-08-13T05:21:43.519Z,88.22
2018-08-13T05:24:47.767Z,87.48
2018-08-13T05:27:52.126Z,87.16
2018-08-13T05:30:56.442Z,87.77
2018-08-13T05:34:00.756Z,87.05
2018-08-13T05:37:05.240Z,86.76
2018-08-13T05:40:11.336Z,86.38
2018-08-13T05:43:15.895Z,86.24
2018-08-13T05:46:20.498Z,85.92
2018-08-13T05:49:24.788Z,85.50
2018-08-13T05:52:29.157Z,83.65
2018-08-13T05:55:33.464Z,83.17
2018-08-13T05:58:37.859Z,82.23
2018-08-13T06:01:42.145Z,75.83
2018-08-13T06:04:46.416Z,70.95
2018-08-13T06:07:51.413Z,66.72
2018-08-13T06:10:55.668Z,61.12
2018-08-13T06:14:00.096Z,56.37
2018-08-13T06:17:04.680Z,52.38
2018-08-13T06:20:11.325Z,52.52
2018-08-13T06:23:15.846Z,52.06
2018-08-13T06:26:20.451Z,51.05
2018-08-13T06:29:24.712Z,50.37
2018-08-13T06:32:28.987Z,49.99
2018-08-13T06:35:33.262Z,49.50
2018-08-13T06:38:38.087Z,48.58
2018-08-13T06:41:42.412Z,50.93
2018-08-13T06:44:47.067Z,49.23
2018-08-13T06:47:51.697Z,49.91
2018-08-13T06:50:56.177Z,50.56
2018-08-13T06:54:00.920Z,51.51
2018-08-13T06:57:06.973Z,51.47
2018-08-13T07:00:14.200Z,48.71
2018-08-13T07:03:18.853Z,49.02
2018-08-13T07:06:23.563Z,51.72
2018-08-13T07:09:28.340Z,51.36
2018-08-13T07:12:32.777Z,49.98
2018-08-13T07:15:37.519Z,52.22
2018-08-13T07:18:41.939Z,53.26
2018-08-13T07:21:46.361Z,52.65
2018-08-13T07:24:50.612Z,49.42
2018-08-13T07:27:54.891Z,48.69
2018-08-13T07:30:59.414Z,49.65
2018-08-13T07:34:04.029Z,49.04
2018-08-13T07:37:09.405Z,49.52
2018-08-13T07:40:16.438Z,48.36
2018-08-13T07:43:20.881Z,47.37
2018-08-13T07:46:25.455Z,44.42
2018-08-13T07:49:30.686Z,45.80
2018-08-13T07:52:35.065Z,45.96
2018-08-13T07:55:39.396Z,46.71
2018-08-13T07:58:43.899Z,46.13
2018-08-13T08:01:48.350Z,45.98
2018-08-13T08:04:52.895Z,44.02
2018-08-13T08:07:57.258Z,40.94
2018-08-13T08:11:01.616Z,43.71
2018-08-13T08:14:06.777Z,41.74
2018-08-13T08:17:11.836Z,37.04
2018-08-13T08:20:16.326Z,39.17
2018-08-13T08:23:20.594Z,41.35
2018-08-13T08:26:24.911Z,39.86
2018-08-13T08:29:29.382Z,37.00
2018-08-13T08:32:33.644Z,39.33
2018-08-13T08:35:38.082Z,40.05
2018-08-13T08:38:42.404Z,39.51
2018-08-13T08:41:46.748Z,42.32
2018-08-13T08:44:51.140Z,40.68
2018-08-13T08:47:56.455Z,40.32
2018-08-13T08:53:30.748Z,39.88
2018-08-13T08:56:35.219Z,40.19
2018-08-13T08:59:38.512Z,41.36
2018-08-13T09:02:50.432Z,38.29
2018-08-13T09:05:53.731Z,38.06
2018-08-13T09:08:57.435Z,39.96
2018-08-13T09:12:00.788Z,39.40
2018-08-13T09:15:04.256Z,38.54
2018-08-13T09:18:19.058Z,39.20
2018-08-13T09:21:33.277Z,39.53
2018-08-13T09:24:47.727Z,36.68
2018-08-13T09:28:02.343Z,36.66
2018-08-13T09:31:19.273Z,40.71
2018-08-13T09:34:33.552Z,36.34
2018-08-13T09:37:37.249Z,37.97
2018-08-13T09:40:40.981Z,37.34
2018-08-13T09:43:44.796Z,39.63
2018-08-13T09:46:48.413Z,36.86
2018-08-13T09:49:51.828Z,36.41
2018-08-13T09:52:55.171Z,36.03
2018-08-13T09:55:59.336Z,37.71
2018-08-13T09:59:03.607Z,39.46
2018-08-13T10:02:06.958Z,37.79
2018-08-13T10:05:10.332Z,36.15
2018-08-13T10:08:49.452Z,35.31
2018-08-13T10:11:53.823Z,38.35
2018-08-13T10:14:58.177Z,37.09
2018-08-13T10:18:02.554Z,34.62
2018-08-13T10:21:06.897Z,36.65
2018-08-13T10:24:11.907Z,38.06
2018-08-13T10:27:16.885Z,36.78
2018-08-13T10:30:21.362Z,35.83
2018-08-13T10:33:25.695Z,36.84
2018-08-13T10:36:30.111Z,36.00
2018-08-13T10:39:34.548Z,34.81
2018-08-13T10:42:39.240Z,34.14
2018-08-13T10:45:43.992Z,35.13
2018-08-13T10:48:48.512Z,37.05
2018-08-13T10:51:53.127Z,34.28
2018-08-13T10:54:57.580Z,34.93
2018-08-13T10:58:02.086Z,36.72
2018-08-13T11:01:07.207Z,37.09
2018-08-13T11:04:11.556Z,33.84
2018-08-13T11:07:15.877Z,35.89
2018-08-13T11:10:20.409Z,36.64
2018-08-13T11:13:24.892Z,35.31
2018-08-13T11:16:29.190Z,37.07
2018-08-13T11:19:33.596Z,36.52
2018-08-13T11:22:38.445Z,37.66
2018-08-13T11:25:42.946Z,38.96
2018-08-13T11:28:48.102Z,37.81
2018-08-13T11:31:52.540Z,40.36
2018-08-13T11:34:57.835Z,40.46
2018-08-13T11:38:02.173Z,40.25
2018-08-13T11:41:06.657Z,40.67
2018-08-13T11:44:11.333Z,40.92
2018-08-13T11:47:15.814Z,40.48
2018-08-13T11:50:21.706Z,40.78
2018-08-13T11:53:26.309Z,41.15
2018-08-13T11:56:30.774Z,40.40
2018-08-13T11:59:35.187Z,40.94
2018-08-13T12:02:40.015Z,40.59
2018-08-13T12:05:44.869Z,39.81
2018-08-13T12:08:49.292Z,39.70
2018-08-13T12:11:55.089Z,39.76
2018-08-13T12:14:59.529Z,39.83
2018-08-13T12:18:04.597Z,38.38
2018-08-13T12:21:08.970Z,38.93
2018-08-13T12:24:13.572Z,40.58
2018-08-13T12:27:18.358Z,38.66
2018-08-13T12:30:22.903Z,39.59
2018-08-13T12:33:27.806Z,38.38
2018-08-13T12:36:32.233Z,37.75
2018-08-13T12:39:37.343Z,37.92
2018-08-13T12:42:41.837Z,37.49
2018-08-13T12:45:46.502Z,38.96
2018-08-13T12:48:51.384Z,38.40
2018-08-13T12:51:55.941Z,37.40
2018-08-13T12:55:00.297Z,37.99
2018-08-13T12:58:04.927Z,36.42
2018-08-13T13:01:10.880Z,38.92
2018-08-13T13:04:15.341Z,38.66
2018-08-13T13:07:19.757Z,40.26
2018-08-13T13:10:24.429Z,39.00
2018-08-13T13:13:28.883Z,40.03
2018-08-13T13:16:33.812Z,39.46
2018-08-13T13:19:38.257Z,38.93
2018-08-13T13:22:42.992Z,40.14
2018-08-13T13:25:48.244Z,41.40
2018-08-13T13:28:52.888Z,40.63
2018-08-13T13:31:57.210Z,40.88
2018-08-13T13:35:01.719Z,39.98
2018-08-13T13:38:07.374Z,41.16
2018-08-13T13:41:13.760Z,39.16
2018-08-13T13:44:18.824Z,38.59
2018-08-13T13:47:23.521Z,38.54
2018-08-13T13:54:36.637Z,39.07
2018-08-13T13:57:41.380Z,38.73
2018-08-13T14:00:47.355Z,38.96
2018-08-13T14:03:52.654Z,41.88
2018-08-13T14:06:57.394Z,39.95
2018-08-13T14:10:02.605Z,40.71
2018-08-13T14:13:11.304Z,42.65
2018-08-13T14:16:15.827Z,42.29
2018-08-13T14:19:20.637Z,42.76
2018-08-13T14:22:25.205Z,41.67
2018-08-13T14:25:29.971Z,43.53
2018-08-13T14:28:34.459Z,43.44
2018-08-13T14:31:38.847Z,46.41
2018-08-13T14:34:43.741Z,53.34
2018-08-13T14:37:48.256Z,72.26
2018-08-13T14:40:52.642Z,80.44
2018-08-13T14:43:57.069Z,89.26
2018-08-13T14:47:01.705Z,97.38
2018-08-13T14:50:08.362Z,99.93
2018-08-13T14:53:12.692Z,100.00
2018-08-13T14:56:17.771Z,100.00
2018-08-13T14:59:22.726Z,100.00
2018-08-13T15:02:27.736Z,100.00
2018-08-13T15:05:32.176Z,100.00
2018-08-13T15:08:36.587Z,100.00
2018-08-13T15:11:42.858Z,100.00
2018-08-13T15:14:47.262Z,100.00
2018-08-13T15:17:51.828Z,100.00
2018-08-13T15:20:56.915Z,100.00
2018-08-13T15:24:01.763Z,100.00
2018-08-13T15:27:06.919Z,100.00
2018-08-13T15:30:15.223Z,100.00
2018-08-13T15:33:20.106Z,100.00
2018-08-13T15:36:24.566Z,100.00
2018-08-13T15:39:29.212Z,100.00
2018-08-13T15:42:34.175Z,100.00
2018-08-13T15:45:38.617Z,100.00
2018-08-13T15:48:44.112Z,100.00
2018-08-13T15:51:48.565Z,100.00
2018-08-13T15:54:53.269Z,100.00
2018-08-13T15:57:57.961Z,100.00
2018-08-13T16:01:02.666Z,100.00
2018-08-13T16:04:07.197Z,100.00
2018-08-13T16:07:12.789Z,100.00
2018-08-13T16:10:18.144Z,100.00
2018-08-13T16:13:22.876Z,100.00
2018-08-13T16:16:27.359Z,100.00
2018-08-13T16:19:33.020Z,100.00
2018-08-13T16:22:37.962Z,100.00
2018-08-13T16:25:42.949Z,100.00
2018-08-13T16:28:48.279Z,100.00
2018-08-13T16:31:52.804Z,100.00
2018-08-13T16:34:58.410Z,100.00
2018-08-13T16:38:03.000Z,100.00
2018-08-13T16:41:07.821Z,100.00
2018-08-13T16:44:12.340Z,100.00
2018-08-13T16:51:16.546Z,100.00
2018-08-13T16:54:21.090Z,100.00
2018-08-13T16:57:25.633Z,100.00
2018-08-13T17:00:31.185Z,100.00
2018-08-13T17:03:35.582Z,100.00
2018-08-13T17:06:40.621Z,100.00
2018-08-13T17:09:45.921Z,100.00
2018-08-13T17:12:51.478Z,100.00
2018-08-13T17:15:56.778Z,100.00
2018-08-13T17:19:01.460Z,100.00
2018-08-13T17:22:06.212Z,100.00
2018-08-13T17:25:13.205Z,100.00
2018-08-13T17:28:17.978Z,100.00
2018-08-13T17:31:22.629Z,100.00
2018-08-13T17:34:27.276Z,100.00
2018-08-13T17:37:31.888Z,100.00
2018-08-13T17:40:36.373Z,100.00
2018-08-13T17:43:40.834Z,100.00
2018-08-13T17:46:46.335Z,100.00
2018-08-13T17:49:50.749Z,100.00
2018-08-13T17:52:55.375Z,100.00
2018-08-13T17:55:59.774Z,100.00
2018-08-13T17:59:04.501Z,100.00
2018-08-13T18:02:09.031Z,100.00
2018-08-13T18:05:17.257Z,100.00
2018-08-13T18:08:21.774Z,100.00
2018-08-13T18:11:26.214Z,100.00
2018-08-13T18:14:30.727Z,100.00
2018-08-13T18:17:35.084Z,100.00
2018-08-13T18:20:39.504Z,100.00
2018-08-13T18:23:44.117Z,100.00
2018-08-13T18:26:48.432Z,100.00
2018-08-13T18:29:52.807Z,100.00
2018-08-13T18:32:57.298Z,100.00
2018-08-13T18:36:01.746Z,100.00
2018-08-13T18:39:08.477Z,100.00
2018-08-13T18:42:12.992Z,100.00
2018-08-13T18:45:17.460Z,100.00
2018-08-13T18:48:21.921Z,100.00
2018-08-13T18:51:26.272Z,100.00
2018-08-13T18:54:31.242Z,100.00
2018-08-13T18:57:35.600Z,100.00
2018-08-13T19:00:40.325Z,100.00
2018-08-13T19:03:44.776Z,100.00
2018-08-13T19:06:49.225Z,100.00
2018-08-13T19:09:54.602Z,100.00
2018-08-13T19:12:59.123Z,100.00
2018-08-13T19:16:03.541Z,100.00
2018-08-13T19:19:08.438Z,100.00
2018-08-13T19:22:12.840Z,100.00
2018-08-13T19:25:19.688Z,100.00
2018-08-13T19:28:24.477Z,100.00
2018-08-13T19:31:29.363Z,100.00
2018-08-13T19:34:33.846Z,100.00
2018-08-13T19:37:38.492Z,100.00
2018-08-13T19:40:42.976Z,100.00
2018-08-13T19:43:47.713Z,100.00
2018-08-13T19:46:52.218Z,100.00
2018-08-13T19:49:56.768Z,100.00
2018-08-13T19:53:07.859Z,100.00
2018-08-13T19:56:18.855Z,100.00
2018-08-13T19:59:29.091Z,100.00
2018-08-13T20:02:33.861Z,100.00
2018-08-13T20:05:38.721Z,100.00
2018-08-13T20:08:43.731Z,100.00
2018-08-13T20:11:52.233Z,100.00
2018-08-13T20:14:57.621Z,100.00
2018-08-13T20:18:02.048Z,100.00
2018-08-13T20:21:06.906Z,100.00
2018-08-13T20:24:11.933Z,100.00
2018-08-13T20:27:16.500Z,100.00
2018-08-13T20:30:22.256Z,100.00
2018-08-13T20:33:26.688Z,100.00
2018-08-13T20:36:31.142Z,100.00
2018-08-13T20:39:35.549Z,100.00
2018-08-13T20:42:40.798Z,100.00
2018-08-13T20:45:45.345Z,100.00
2018-08-13T20:48:49.729Z,100.00
2018-08-13T20:51:54.344Z,100.00
2018-08-13T20:54:58.914Z,100.00
2018-08-13T20:58:03.657Z,100.00
2018-08-13T21:01:08.092Z,100.00
2018-08-13T21:04:12.616Z,100.00
2018-08-13T21:07:17.557Z,100.00
2018-08-13T21:10:23.888Z,100.00
2018-08-13T21:13:28.592Z,100.00
2018-08-13T21:16:33.586Z,100.00
2018-08-13T21:19:38.796Z,100.00
2018-08-13T21:22:43.170Z,100.00
2018-08-13T21:25:48.371Z,100.00
2018-08-13T21:28:53.993Z,100.00
2018-08-13T21:31:58.743Z,100.00
2018-08-13T21:35:03.445Z,100.00
2018-08-13T21:38:07.869Z,100.00
2018-08-13T21:41:15.380Z,100.00
2018-08-13T21:44:20.004Z,100.00
2018-08-13T21:47:24.601Z,100.00
2018-08-13T21:50:29.157Z,100.00
2018-08-13T21:53:33.569Z,100.00
2018-08-13T21:56:38.120Z,100.00
2018-08-13T21:59:42.522Z,100.00
2018-08-13T22:02:49.437Z,100.00
2018-08-13T22:05:54.187Z,100.00
2018-08-13T22:08:58.603Z,100.00
2018-08-13T22:12:03.074Z,100.00
2018-08-13T22:15:31.896Z,100.00
2018-08-13T22:18:36.394Z,100.00
2018-08-13T22:21:40.959Z,100.00
2018-08-13T22:25:02.093Z,100.00
2018-08-13T22:28:07.650Z,100.00
2018-08-13T22:31:13.409Z,100.00
2018-08-13T22:34:17.959Z,100.00
2018-08-13T22:37:22.408Z,100.00
2018-08-13T22:40:27.131Z,100.00
2018-08-13T22:43:31.550Z,100.00
2018-08-13T22:46:36.009Z,100.00
2018-08-13T22:49:40.503Z,100.00
2018-08-13T22:52:45.078Z,100.00
2018-08-13T22:55:49.879Z,100.00
2018-08-13T22:58:54.224Z,100.00
2018-08-13T23:01:58.637Z,100.00
2018-08-13T23:05:03.109Z,100.00
2018-08-13T23:08:07.927Z,100.00
2018-08-13T23:11:12.459Z,100.00
2018-08-13T23:14:16.804Z,100.00
2018-08-13T23:17:21.140Z,100.00
2018-08-13T23:20:29.926Z,100.00
2018-08-13T23:23:34.329Z,100.00
2018-08-13T23:26:38.682Z,100.00
2018-08-13T23:29:43.737Z,100.00
2018-08-13T23:32:49.506Z,100.00
2018-08-13T23:35:53.897Z,100.00
2018-08-13T23:38:58.285Z,100.00
2018-08-13T23:42:02.856Z,100.00
2018-08-13T23:45:10.973Z,100.00
2018-08-13T23:48:15.444Z,100.00
2018-08-13T23:51:20.251Z,100.00
2018-08-13T23:54:24.679Z,100.00
2018-08-13T23:57:29.061Z,100.00
